KL   EN   DA


ASIAQ
Weather Now GREENLAND SURVEY
Sorting:
Along the coast
Alphabetical
Location Updated [WGT/WGST] Temperature [°C] Wind [m/s] Air pressure [hPa] Relative humidity [%] Precipitation [mm]
PresentWind chillSpeedMax
Qaanaaq18.04 12:00-16,3-21,71,1 ⇓2,61011690,0
Kitsissut18.04 12:00-18,1-31,210,3 ⇖13,4101071n/a
Kitsissorsuit18.04 12:00-21,8-29,02,6 ⇓3,1101380n/a
Upernavik18.04 12:00-20,7-29,84,1 ⇘5,11001n/an/a
Qaarsut18.04 12:00-11,6-17,01,3 ⇙2,01004780,0
Nuussuaq18.04 12:00-12,7-21,76,2 ⇘7,7101379n/a
Qeqertarsuaq18.04 12:00-10,9-17,94,3 ⇘6,91014680,0
Ilulissat18.04 12:00-11,1-18,34,4 ⇖6,8101163n/a
Qasigiannguit18.04 12:00-9,3-12,61,6 ⇑2,61012590,0
Aasiaat18.04 12:00-10,8-16,63,2 ⇒5,11013630,0
Attu18.04 12:00-12,9-21,65,7 ⇓8,2101482n/a
Kangerlussuaq18.04 12:00-10,2-17,95,3 ⇐8,51008520,0
Sisimiut18.04 12:00-9,3-13,92,4 ⇙3,91014540,0
Maniitsoq18.04 12:00-6,7-11,22,7 ⇗4,01007640,1
Sioralik18.04 12:00-7,4-13,94,6 ⇙6,7101052n/a
Niaqornaa18.04 07:00-8,1-13,02,5 ⇘4,3100232n/a
Kapisillit18.04 12:00-7,1-15,98,8 ⇙11,01000530,0
Nuuk Skibakke/Sisorarfiit18.04 12:00-10,3-20,810,4 ⇓12,895760n/a
Nuuk Airport18.04 12:00-6,9-15,58,5 ⇓11,099951n/a
Nuuk City02.04 05:000,5-5,16,6 ⇙11,7974952,8
Nuuk Siorarsiorfik17.04 14:40-5,7-12,25,3 ⇘6,599670n/a
Ukiivik18.04 12:00-4,0-14,116,0 ⇓18,599954n/a
Paamiut18.04 12:00-2,2-11,515,3 ⇘19,6995n/an/a
Narsarsuaq18.04 12:004,11,92,4 ⇒3,2988450,0
Narsaq18.04 12:003,51,32,2 ⇓3,4988470,0
Nunarsuit18.04 12:00-3,4-14,823,2 ⇘28,399161n/a
Qaqortoq18.04 11:002,5-2,14,4 ⇗5,7985520,0
Nanortalik18.04 12:002,2-1,94,5 ⇓5,9989860,0
Angisoq18.04 12:000,0-6,89,3 ⇘10,899081n/a
Prins Christian Sund18.04 11:000,9-3,54,5 ⇘13,2982890,2
Ikermiuarsuk18.04 12:000,7-6,09,8 ⇓12,498892n/a
Ikermit18.04 12:00-0,1-6,99,3 ⇙11,398797n/a
Kulusuk18.04 12:001,8-4,38,9 ⇐12,2994850,1
Tasiilaq18.04 12:003,91,51,3 ⇖3,6992740,0
Aputiteeq18.04 12:001,90,41,5 ⇘2,6100192n/a
Ittoqqortoormiit18.04 12:00-0,5-3,02,0 ⇗3,6997940,3
Nerlerit Inaat18.04 12:002,50,52,0 ⇘0,5100484n/a
Daneborg18.04 12:00-1,3-7,01,0 ⇒1,5100391n/a
Danmarkshavn18.04 12:00-7,5-10,71,7 ⇐1,71002900,1
Henrik Krøyer Holme18.04 12:00-12,8-20,64,6 ⇙9,8100186n/a
Station Nord18.04 12:00-22,8-29,22,1 ⇒3,1100178n/a
Kap Morris Jesup18.04 12:00-22,4-34,06,2 ⇒7,7101078n/a

Advanced version
Data source - Operated by - Disclaimer